createdAt,value
2019-05-19T00:01:36.931Z,12.46
2019-05-19T00:04:03.010Z,11.72
2019-05-19T00:06:29.003Z,11.94
2019-05-19T00:08:55.026Z,11.94
2019-05-19T00:11:21.004Z,11.96
2019-05-19T00:13:46.865Z,11.67
2019-05-19T00:16:12.720Z,11.67
2019-05-19T00:18:38.565Z,11.67
2019-05-19T00:21:04.525Z,11.58
2019-05-19T00:23:30.551Z,11.81
2019-05-19T00:25:56.425Z,11.92
2019-05-19T00:28:22.288Z,12.00
2019-05-19T00:30:48.224Z,11.97
2019-05-19T00:33:14.094Z,12.03
2019-05-19T00:35:39.913Z,11.83
2019-05-19T00:38:05.855Z,11.59
2019-05-19T00:40:31.745Z,11.04
2019-05-19T00:42:57.707Z,10.80
2019-05-19T00:45:23.560Z,10.83
2019-05-19T00:47:49.542Z,11.08
2019-05-19T00:50:15.600Z,11.37
2019-05-19T00:52:41.434Z,11.47
2019-05-19T00:55:07.566Z,11.35
2019-05-19T00:57:34.917Z,11.20
2019-05-19T01:00:00.765Z,11.29
2019-05-19T01:02:26.726Z,11.29
2019-05-19T01:04:52.587Z,11.27
2019-05-19T01:07:18.534Z,11.22
2019-05-19T01:09:44.441Z,11.19
2019-05-19T01:12:10.397Z,11.20
2019-05-19T01:14:36.223Z,11.29
2019-05-19T01:17:02.507Z,11.15
2019-05-19T01:19:28.480Z,10.81
2019-05-19T01:21:54.521Z,10.86
2019-05-19T01:24:20.485Z,10.87
2019-05-19T01:26:46.306Z,10.62
2019-05-19T01:29:12.342Z,10.75
2019-05-19T01:31:38.397Z,10.99
2019-05-19T01:34:04.368Z,11.09
2019-05-19T01:36:30.316Z,11.27
2019-05-19T01:38:56.277Z,11.25
2019-05-19T01:41:22.155Z,11.00
2019-05-19T01:43:48.108Z,10.99
2019-05-19T01:46:14.053Z,11.06
2019-05-19T01:48:40.012Z,11.15
2019-05-19T01:51:05.846Z,11.12
2019-05-19T01:53:31.805Z,11.03
2019-05-19T01:55:57.639Z,11.10
2019-05-19T01:58:23.600Z,11.24
2019-05-19T02:00:49.523Z,11.08
2019-05-19T02:03:15.468Z,11.09
2019-05-19T02:05:41.306Z,10.90
2019-05-19T02:08:07.152Z,10.58
2019-05-19T02:10:33.110Z,10.72
2019-05-19T02:12:58.956Z,10.39
2019-05-19T02:15:25.004Z,10.48
2019-05-19T02:17:51.142Z,10.56
2019-05-19T02:20:30.572Z,10.62
2019-05-19T02:22:45.266Z,10.47
2019-05-19T02:25:11.529Z,10.30
2019-05-19T02:27:37.469Z,10.36
2019-05-19T02:30:05.544Z,10.15
2019-05-19T02:32:31.371Z,10.05
2019-05-19T02:34:57.245Z,10.12
2019-05-19T02:37:23.097Z,9.87
2019-05-19T02:39:49.049Z,9.99
2019-05-19T02:42:14.996Z,10.28
2019-05-19T02:44:41.429Z,10.29
2019-05-19T02:47:08.098Z,10.31
2019-05-19T02:49:34.093Z,10.32
2019-05-19T02:52:01.947Z,10.32
2019-05-19T02:54:28.625Z,10.31
2019-05-19T02:56:54.667Z,10.21
2019-05-19T02:59:21.422Z,10.25
2019-05-19T03:02:01.241Z,10.00
2019-05-19T03:04:27.124Z,9.77
2019-05-19T03:06:52.964Z,10.01
2019-05-19T03:09:18.900Z,9.85
2019-05-19T03:11:44.852Z,9.69
2019-05-19T03:14:10.662Z,9.54
2019-05-19T03:16:36.538Z,9.47
2019-05-19T03:19:02.489Z,9.66
2019-05-19T03:21:28.329Z,9.68
2019-05-19T03:23:54.263Z,9.76
2019-05-19T03:26:20.226Z,9.82
2019-05-19T03:28:46.060Z,9.84
2019-05-19T03:31:16.788Z,9.84
2019-05-19T03:33:44.555Z,9.68
2019-05-19T03:36:10.394Z,9.68
2019-05-19T03:38:36.241Z,9.48
2019-05-19T03:41:02.177Z,9.69
2019-05-19T03:43:28.017Z,9.70
2019-05-19T03:45:53.971Z,9.76
2019-05-19T03:48:19.810Z,9.59
2019-05-19T03:50:45.679Z,9.42
2019-05-19T03:53:11.526Z,9.17
2019-05-19T03:55:37.394Z,9.13
2019-05-19T03:58:03.352Z,9.28
2019-05-19T04:00:29.188Z,9.17
2019-05-19T04:02:55.031Z,9.50
2019-05-19T04:05:20.932Z,9.67
2019-05-19T04:07:46.742Z,9.84
2019-05-19T04:10:12.879Z,9.80
2019-05-19T04:12:38.759Z,9.66
2019-05-19T04:15:04.860Z,9.66
2019-05-19T04:17:30.844Z,9.73
2019-05-19T04:19:56.701Z,9.73
2019-05-19T04:22:22.530Z,9.61
2019-05-19T04:24:48.337Z,9.96
2019-05-19T04:27:14.188Z,9.71
2019-05-19T04:29:40.136Z,9.98
2019-05-19T04:32:06.095Z,9.88
2019-05-19T04:34:31.932Z,9.91
2019-05-19T04:36:57.778Z,10.21
2019-05-19T04:39:23.617Z,10.26
2019-05-19T04:41:49.562Z,10.37
2019-05-19T04:44:15.394Z,10.52
2019-05-19T04:46:41.259Z,10.72
2019-05-19T04:49:07.109Z,10.74
2019-05-19T04:51:33.065Z,10.79
2019-05-19T04:53:58.903Z,10.96
2019-05-19T04:56:24.975Z,10.94
2019-05-19T04:58:50.813Z,11.03
2019-05-19T05:01:16.751Z,11.07
2019-05-19T05:03:42.593Z,11.30
2019-05-19T05:06:08.571Z,11.46
2019-05-19T05:08:34.498Z,11.55
2019-05-19T05:11:00.366Z,11.52
2019-05-19T05:13:26.323Z,11.72
2019-05-19T05:15:52.263Z,11.78
2019-05-19T05:18:18.229Z,11.88
2019-05-19T05:20:44.048Z,11.94
2019-05-19T05:23:09.911Z,12.30
2019-05-19T05:25:35.741Z,12.50
2019-05-19T05:28:01.686Z,12.69
2019-05-19T05:30:27.530Z,12.80
2019-05-19T05:32:53.387Z,12.99
2019-05-19T05:35:19.320Z,13.15
2019-05-19T05:37:45.469Z,13.19
2019-05-19T05:40:11.690Z,13.24
2019-05-19T05:42:37.555Z,13.28
2019-05-19T05:45:06.299Z,13.31
2019-05-19T05:47:32.265Z,13.21
2019-05-19T05:49:58.195Z,13.34
2019-05-19T05:52:37.527Z,13.46
2019-05-19T05:54:51.893Z,13.56
2019-05-19T05:57:17.750Z,13.68
2019-05-19T05:59:43.686Z,13.69
2019-05-19T06:02:09.542Z,13.84
2019-05-19T06:04:35.469Z,14.15
2019-05-19T06:07:01.337Z,14.51
2019-05-19T06:09:27.176Z,14.89
2019-05-19T06:11:53.123Z,15.23
2019-05-19T06:14:19.052Z,15.55
2019-05-19T06:16:45.030Z,15.81
2019-05-19T06:19:10.870Z,16.17
2019-05-19T06:21:36.823Z,16.37
2019-05-19T06:24:03.864Z,16.29
2019-05-19T06:26:29.799Z,16.24
2019-05-19T06:28:55.668Z,16.50
2019-05-19T06:31:21.514Z,16.72
2019-05-19T06:33:47.415Z,16.57
2019-05-19T06:36:13.258Z,16.82
2019-05-19T06:38:39.171Z,16.92
2019-05-19T06:41:05.107Z,17.16
2019-05-19T06:43:31.317Z,17.16
2019-05-19T06:45:59.246Z,17.35
2019-05-19T06:48:25.225Z,17.24
2019-05-19T06:50:51.079Z,17.09
2019-05-19T06:53:16.950Z,17.03
2019-05-19T06:55:42.813Z,17.33
2019-05-19T06:58:08.671Z,17.37
2019-05-19T07:00:34.680Z,17.41
2019-05-19T07:03:00.558Z,17.41
2019-05-19T07:05:26.500Z,17.29
2019-05-19T07:07:52.352Z,17.68
2019-05-19T07:10:19.464Z,17.64
2019-05-19T07:12:45.336Z,17.86
2019-05-19T07:15:11.374Z,18.15
2019-05-19T07:17:37.261Z,18.09
2019-05-19T07:20:04.297Z,18.36
2019-05-19T07:22:30.143Z,18.25
2019-05-19T07:24:55.978Z,18.36
2019-05-19T07:27:21.820Z,18.98
2019-05-19T07:29:47.703Z,18.76
2019-05-19T07:32:13.563Z,18.63
2019-05-19T07:34:39.542Z,18.63
2019-05-19T07:37:05.382Z,18.55
2019-05-19T07:39:31.233Z,19.05
2019-05-19T07:41:57.064Z,19.20
2019-05-19T07:44:22.924Z,19.34
2019-05-19T07:46:48.773Z,19.52
2019-05-19T07:49:14.629Z,19.48
2019-05-19T07:51:40.563Z,19.53
2019-05-19T07:54:06.416Z,19.77
2019-05-19T07:56:32.585Z,19.99
2019-05-19T07:58:58.565Z,20.14
2019-05-19T08:01:24.414Z,20.05
2019-05-19T08:03:50.276Z,20.20
2019-05-19T08:06:16.114Z,20.09
2019-05-19T08:08:41.979Z,20.27
2019-05-19T08:11:07.813Z,20.61
2019-05-19T08:13:33.685Z,20.14
2019-05-19T08:15:59.524Z,20.56
2019-05-19T08:18:25.427Z,20.17
2019-05-19T08:20:51.356Z,20.13
2019-05-19T08:23:17.196Z,20.73
2019-05-19T08:25:43.035Z,21.01
2019-05-19T08:28:09.303Z,21.15
2019-05-19T08:30:35.234Z,20.52
2019-05-19T08:33:01.065Z,20.88
2019-05-19T08:35:26.922Z,21.20
2019-05-19T08:37:52.756Z,21.33
2019-05-19T08:40:18.635Z,21.60
2019-05-19T08:42:44.534Z,20.92
2019-05-19T08:45:10.581Z,21.48
2019-05-19T08:47:36.431Z,21.87
2019-05-19T08:50:04.814Z,21.45
2019-05-19T08:52:30.636Z,21.81
2019-05-19T08:54:56.507Z,21.47
2019-05-19T08:57:22.379Z,22.05
2019-05-19T08:59:48.236Z,22.05
2019-05-19T09:02:14.083Z,22.12
2019-05-19T09:04:39.931Z,21.96
2019-05-19T09:07:05.873Z,21.94
2019-05-19T09:09:31.754Z,22.01
2019-05-19T09:11:57.620Z,22.02
2019-05-19T09:14:23.478Z,22.22
2019-05-19T09:16:51.873Z,22.33
2019-05-19T09:19:17.714Z,22.40
2019-05-19T09:21:43.571Z,22.25
2019-05-19T09:24:09.440Z,22.02
2019-05-19T09:26:35.323Z,21.61
2019-05-19T09:29:01.693Z,21.89
2019-05-19T09:31:27.662Z,22.19
2019-05-19T09:33:53.523Z,22.37
2019-05-19T09:36:19.402Z,22.66
2019-05-19T09:38:45.258Z,22.78
2019-05-19T09:41:11.126Z,22.76
2019-05-19T09:43:37.317Z,22.75
2019-05-19T09:46:03.175Z,22.69
2019-05-19T09:48:29.043Z,22.61
2019-05-19T09:50:55.071Z,22.84
2019-05-19T09:53:21.026Z,22.50
2019-05-19T09:55:46.998Z,22.67
2019-05-19T09:58:17.093Z,22.62
2019-05-19T10:00:41.955Z,22.78
2019-05-19T10:03:07.929Z,22.63
2019-05-19T10:05:33.868Z,22.72
2019-05-19T10:07:59.740Z,22.96
2019-05-19T10:10:33.153Z,23.01
2019-05-19T10:12:59.094Z,22.82
2019-05-19T10:15:24.994Z,22.79
2019-05-19T10:17:50.871Z,23.21
2019-05-19T10:20:17.388Z,23.20
2019-05-19T10:22:43.360Z,23.24
2019-05-19T10:25:21.733Z,23.21
2019-05-19T10:27:37.669Z,23.52
2019-05-19T10:30:06.863Z,23.32
2019-05-19T10:32:32.977Z,23.59
2019-05-19T10:34:58.804Z,23.49
2019-05-19T10:37:24.680Z,23.30
2019-05-19T10:39:50.533Z,23.34
2019-05-19T10:42:16.776Z,23.05
2019-05-19T10:44:44.626Z,22.97
2019-05-19T10:47:10.526Z,23.34
2019-05-19T10:49:36.366Z,22.92
2019-05-19T10:52:02.688Z,22.68
2019-05-19T10:54:28.539Z,23.14
2019-05-19T10:56:54.514Z,22.86
2019-05-19T10:59:20.543Z,22.35
2019-05-19T11:01:49.710Z,22.25
2019-05-19T11:04:15.561Z,22.50
2019-05-19T11:06:41.411Z,22.19
2019-05-19T11:09:07.463Z,23.27
2019-05-19T11:11:33.493Z,23.72
2019-05-19T11:13:59.349Z,24.39
2019-05-19T11:16:27.217Z,24.95
2019-05-19T11:18:54.341Z,24.26
2019-05-19T11:21:21.807Z,24.81
2019-05-19T11:23:47.677Z,24.59
2019-05-19T11:26:13.532Z,24.78
2019-05-19T11:28:39.522Z,24.93
2019-05-19T11:31:05.379Z,25.31
2019-05-19T11:33:31.281Z,25.69
2019-05-19T11:35:57.111Z,24.90
2019-05-19T11:38:22.997Z,25.16
2019-05-19T11:40:49.166Z,25.51
2019-05-19T11:43:15.019Z,24.96
2019-05-19T11:45:40.883Z,25.19
2019-05-19T11:48:06.729Z,25.08
2019-05-19T11:50:34.776Z,24.80
2019-05-19T11:53:00.743Z,24.85
2019-05-19T11:55:32.019Z,23.75
2019-05-19T11:57:57.861Z,23.57
2019-05-19T12:00:25.074Z,23.44
2019-05-19T12:02:51.013Z,23.66
2019-05-19T12:05:16.960Z,23.66
2019-05-19T12:07:42.861Z,23.05
2019-05-19T12:10:09.073Z,23.00
2019-05-19T12:12:35.017Z,23.46
2019-05-19T12:15:01.759Z,23.60
2019-05-19T12:17:29.304Z,24.59
2019-05-19T12:19:55.188Z,25.39
2019-05-19T12:22:21.049Z,25.60
2019-05-19T12:24:46.898Z,25.29
2019-05-19T12:27:12.747Z,25.99
2019-05-19T12:29:38.772Z,25.78
2019-05-19T12:32:04.714Z,26.27
2019-05-19T12:34:30.599Z,26.35
2019-05-19T12:36:56.826Z,25.95
2019-05-19T12:39:22.703Z,25.83
2019-05-19T12:41:48.532Z,25.39
2019-05-19T12:44:14.525Z,26.28
2019-05-19T12:46:40.376Z,26.40
2019-05-19T12:49:08.418Z,26.14
2019-05-19T12:51:34.280Z,26.46
2019-05-19T12:54:00.112Z,26.22
2019-05-19T12:56:38.718Z,26.31
2019-05-19T12:58:54.845Z,26.13
2019-05-19T13:01:20.683Z,26.24
2019-05-19T13:03:46.565Z,26.34
2019-05-19T13:06:12.420Z,26.46
2019-05-19T13:08:39.052Z,26.34
2019-05-19T13:11:04.952Z,27.42
2019-05-19T13:13:30.870Z,26.48
2019-05-19T13:15:56.757Z,27.12
2019-05-19T13:18:23.359Z,27.25
2019-05-19T13:20:49.265Z,26.68
2019-05-19T13:23:15.222Z,26.01
2019-05-19T13:25:41.114Z,26.62
2019-05-19T13:28:07.053Z,26.00
2019-05-19T13:30:33.021Z,26.79
2019-05-19T13:32:58.899Z,26.70
2019-05-19T13:35:24.759Z,26.13
2019-05-19T13:37:50.656Z,26.02
2019-05-19T13:40:16.673Z,26.10
2019-05-19T13:42:42.555Z,26.12
2019-05-19T13:45:08.724Z,26.28
2019-05-19T13:47:34.564Z,25.69
2019-05-19T13:50:00.626Z,26.34
2019-05-19T13:52:26.492Z,27.26
2019-05-19T13:54:52.356Z,27.44
2019-05-19T13:57:18.626Z,27.10
2019-05-19T13:59:44.561Z,26.51
2019-05-19T14:02:10.505Z,26.62
2019-05-19T14:04:36.457Z,27.02
2019-05-19T14:07:02.378Z,27.09
2019-05-19T14:09:28.268Z,26.90
2019-05-19T14:11:54.146Z,27.26
2019-05-19T14:14:20.007Z,27.23
2019-05-19T14:16:45.871Z,26.94
2019-05-19T14:19:11.753Z,27.87
2019-05-19T14:21:37.614Z,27.31
2019-05-19T14:24:03.574Z,26.60
2019-05-19T14:26:29.452Z,26.55
2019-05-19T14:28:55.308Z,26.49
2019-05-19T14:31:21.205Z,26.11
2019-05-19T14:33:47.047Z,26.13
2019-05-19T14:36:12.953Z,26.26
2019-05-19T14:38:40.704Z,26.22
2019-05-19T14:41:06.584Z,26.56
2019-05-19T14:43:33.146Z,26.39
2019-05-19T14:46:02.307Z,26.45
2019-05-19T14:48:28.143Z,26.35
2019-05-19T14:50:55.953Z,26.47
2019-05-19T14:53:21.794Z,26.61
2019-05-19T14:55:47.631Z,26.43
2019-05-19T14:58:13.506Z,25.84
2019-05-19T15:00:39.370Z,26.25
2019-05-19T15:03:05.211Z,26.28
2019-05-19T15:05:31.275Z,26.55
2019-05-19T15:07:57.155Z,26.78
2019-05-19T15:10:23.035Z,25.20
2019-05-19T15:12:48.914Z,25.18
2019-05-19T15:15:15.084Z,24.56
2019-05-19T15:17:40.948Z,24.75
2019-05-19T15:20:07.127Z,25.28
2019-05-19T15:22:32.970Z,25.57
2019-05-19T15:24:58.877Z,26.04
2019-05-19T15:27:24.762Z,25.96
2019-05-19T15:29:50.688Z,26.10
2019-05-19T15:32:16.623Z,25.57
2019-05-19T15:34:42.526Z,25.56
2019-05-19T15:37:08.393Z,25.37
2019-05-19T15:39:34.254Z,24.87
2019-05-19T15:42:00.144Z,24.74
2019-05-19T15:44:26.004Z,24.82
2019-05-19T15:46:51.889Z,24.91
2019-05-19T15:49:17.731Z,24.29
2019-05-19T15:51:59.028Z,23.95
2019-05-19T15:54:11.490Z,24.45
2019-05-19T15:56:37.399Z,25.37
2019-05-19T15:59:03.322Z,26.10
2019-05-19T16:01:29.189Z,25.30
2019-05-19T16:03:55.149Z,25.81
2019-05-19T16:06:20.986Z,25.80
2019-05-19T16:08:46.876Z,25.24
2019-05-19T16:11:12.743Z,25.19
2019-05-19T16:13:38.757Z,24.89
2019-05-19T16:16:04.706Z,24.44
2019-05-19T16:18:30.576Z,24.23
2019-05-19T16:20:56.420Z,24.35
2019-05-19T16:23:22.278Z,24.16
2019-05-19T16:25:48.150Z,23.99
2019-05-19T16:28:13.993Z,23.93
2019-05-19T16:30:39.885Z,23.82
2019-05-19T16:33:05.743Z,23.96
2019-05-19T16:35:31.601Z,23.87
2019-05-19T16:37:57.480Z,23.58
2019-05-19T16:40:23.407Z,23.54
2019-05-19T16:42:49.266Z,23.53
2019-05-19T16:45:15.729Z,23.56
2019-05-19T16:47:41.593Z,23.63
2019-05-19T16:50:07.775Z,23.84
2019-05-19T16:52:33.595Z,24.12
2019-05-19T16:55:18.238Z,24.07
2019-05-19T16:57:44.200Z,24.04
2019-05-19T17:00:10.594Z,23.45
2019-05-19T17:02:36.535Z,23.23
2019-05-19T17:05:04.299Z,22.91
2019-05-19T17:07:30.167Z,22.74
2019-05-19T17:09:56.032Z,22.39
2019-05-19T17:12:21.877Z,22.41
2019-05-19T17:14:49.219Z,22.27
2019-05-19T17:17:15.180Z,22.25
2019-05-19T17:19:41.099Z,22.26
2019-05-19T17:22:06.987Z,22.16
2019-05-19T17:24:32.832Z,22.21
2019-05-19T17:26:58.746Z,22.12
2019-05-19T17:29:24.649Z,22.00
2019-05-19T17:31:50.534Z,22.07
2019-05-19T17:34:16.393Z,22.12
2019-05-19T17:36:42.228Z,22.13
2019-05-19T17:39:08.076Z,22.18
2019-05-19T17:41:33.963Z,22.18
2019-05-19T17:43:59.814Z,22.11
2019-05-19T17:46:25.666Z,21.94
2019-05-19T17:48:51.529Z,21.97
2019-05-19T17:51:17.407Z,21.96
2019-05-19T17:53:43.394Z,21.90
2019-05-19T17:56:09.362Z,22.02
2019-05-19T17:58:35.319Z,21.91
2019-05-19T18:01:01.178Z,21.84
2019-05-19T18:03:27.482Z,21.99
2019-05-19T18:05:53.458Z,22.03
2019-05-19T18:08:19.358Z,21.96
2019-05-19T18:10:45.252Z,21.90
2019-05-19T18:13:11.224Z,21.72
2019-05-19T18:15:37.110Z,21.73
2019-05-19T18:18:02.999Z,21.64
2019-05-19T18:20:28.891Z,21.47
2019-05-19T18:22:54.789Z,21.23
2019-05-19T18:25:20.671Z,20.96
2019-05-19T18:27:46.531Z,21.04
2019-05-19T18:30:13.010Z,20.84
2019-05-19T18:32:38.893Z,20.73
2019-05-19T18:35:05.008Z,20.52
2019-05-19T18:37:30.959Z,20.65
2019-05-19T18:39:56.912Z,20.48
2019-05-19T18:42:22.820Z,20.42
2019-05-19T18:44:48.693Z,20.21
2019-05-19T18:47:14.550Z,20.15
2019-05-19T18:49:40.465Z,20.04
2019-05-19T18:52:06.332Z,19.92
2019-05-19T18:54:32.202Z,19.84
2019-05-19T18:56:59.273Z,19.73
2019-05-19T18:59:25.158Z,19.64
2019-05-19T19:01:51.033Z,19.52
2019-05-19T19:04:16.950Z,19.54
2019-05-19T19:06:42.809Z,19.57
2019-05-19T19:09:09.110Z,19.42
2019-05-19T19:11:35.093Z,19.29
2019-05-19T19:14:01.072Z,19.02
2019-05-19T19:16:27.338Z,18.87
2019-05-19T19:18:53.227Z,18.71
2019-05-19T19:21:19.133Z,18.63
2019-05-19T19:23:44.998Z,18.69
2019-05-19T19:26:12.944Z,18.52
2019-05-19T19:28:38.832Z,18.61
2019-05-19T19:31:04.705Z,18.42
2019-05-19T19:33:30.580Z,18.50
2019-05-19T19:35:56.462Z,18.48
2019-05-19T19:38:22.385Z,18.57
2019-05-19T19:40:48.241Z,18.63
2019-05-19T19:43:14.914Z,18.78
2019-05-19T19:45:40.762Z,18.75
2019-05-19T19:48:06.643Z,18.61
2019-05-19T19:50:33.245Z,18.67
2019-05-19T19:52:59.150Z,18.60
2019-05-19T19:55:25.233Z,18.20
2019-05-19T19:57:51.101Z,18.12
2019-05-19T20:00:35.377Z,18.07
2019-05-19T20:03:01.373Z,18.21
2019-05-19T20:05:27.232Z,18.27
2019-05-19T20:07:53.221Z,18.30
2019-05-19T20:10:19.098Z,18.40
2019-05-19T20:12:44.985Z,18.39
2019-05-19T20:15:14.112Z,17.76
2019-05-19T20:17:39.949Z,17.41
2019-05-19T20:20:05.917Z,17.54
2019-05-19T20:22:31.758Z,17.81
2019-05-19T20:24:57.610Z,17.87
2019-05-19T20:27:23.463Z,17.80
2019-05-19T20:29:49.307Z,18.01
2019-05-19T20:32:15.146Z,17.92
2019-05-19T20:34:41.029Z,17.99
2019-05-19T20:37:06.870Z,18.05
2019-05-19T20:39:32.729Z,17.82
2019-05-19T20:41:58.622Z,17.61
2019-05-19T20:44:24.617Z,17.50
2019-05-19T20:46:50.444Z,17.47
2019-05-19T20:49:16.278Z,17.39
2019-05-19T20:51:42.163Z,16.99
2019-05-19T20:54:08.013Z,17.16
2019-05-19T20:56:33.867Z,17.28
2019-05-19T20:58:59.729Z,17.30
2019-05-19T21:01:25.625Z,17.29
2019-05-19T21:03:51.432Z,16.97
2019-05-19T21:06:17.306Z,16.41
2019-05-19T21:08:43.158Z,16.51
2019-05-19T21:11:08.984Z,16.44
2019-05-19T21:13:34.835Z,16.63
2019-05-19T21:16:00.650Z,16.22
2019-05-19T21:18:26.491Z,15.58
2019-05-19T21:20:52.341Z,15.84
2019-05-19T21:23:18.202Z,15.98
2019-05-19T21:25:44.048Z,16.06
2019-05-19T21:28:09.915Z,15.88
2019-05-19T21:30:35.738Z,16.14
2019-05-19T21:33:01.731Z,16.04
2019-05-19T21:35:27.590Z,16.18
2019-05-19T21:37:53.456Z,16.00
2019-05-19T21:40:19.384Z,15.73
2019-05-19T21:42:45.250Z,15.86
2019-05-19T21:45:11.296Z,15.51
2019-05-19T21:47:37.157Z,15.46
2019-05-19T21:50:05.738Z,15.48
2019-05-19T21:52:31.638Z,15.35
2019-05-19T21:54:57.497Z,15.29
2019-05-19T21:57:23.340Z,15.24
2019-05-19T21:59:49.200Z,15.17
2019-05-19T22:02:15.142Z,15.05
2019-05-19T22:04:41.012Z,15.02
2019-05-19T22:07:08.774Z,14.85
2019-05-19T22:09:34.677Z,14.95
2019-05-19T22:12:00.518Z,14.86
2019-05-19T22:14:26.372Z,14.78
2019-05-19T22:16:52.235Z,14.75
2019-05-19T22:19:18.071Z,14.87
2019-05-19T22:21:43.924Z,14.73
2019-05-19T22:24:09.784Z,14.85
2019-05-19T22:26:35.658Z,14.66
2019-05-19T22:29:01.810Z,14.53
2019-05-19T22:31:36.631Z,14.60
2019-05-19T22:33:55.433Z,14.37
2019-05-19T22:36:21.295Z,14.33
2019-05-19T22:38:47.251Z,14.31
2019-05-19T22:41:13.113Z,14.24
2019-05-19T22:43:38.960Z,14.14
2019-05-19T22:46:04.825Z,14.10
2019-05-19T22:48:30.692Z,14.11
2019-05-19T22:50:56.553Z,14.00
2019-05-19T22:53:22.631Z,14.02
2019-05-19T22:55:48.500Z,14.06
2019-05-19T22:58:14.363Z,13.87
2019-05-19T23:00:40.220Z,13.90
2019-05-19T23:03:06.073Z,13.94
2019-05-19T23:05:31.915Z,14.06
2019-05-19T23:07:57.784Z,14.14
2019-05-19T23:10:23.615Z,13.91
2019-05-19T23:12:49.451Z,14.08
2019-05-19T23:15:16.317Z,14.11
2019-05-19T23:17:42.349Z,14.15
2019-05-19T23:20:08.934Z,14.20
2019-05-19T23:22:34.787Z,14.46
2019-05-19T23:25:00.666Z,14.67
2019-05-19T23:27:26.530Z,14.69
2019-05-19T23:29:52.390Z,14.65
2019-05-19T23:32:18.339Z,14.44
2019-05-19T23:34:44.193Z,14.28
2019-05-19T23:37:10.062Z,14.41
2019-05-19T23:39:35.932Z,14.27
2019-05-19T23:42:01.788Z,14.05
2019-05-19T23:44:27.684Z,14.00
2019-05-19T23:46:53.538Z,14.06
2019-05-19T23:49:19.380Z,13.99
2019-05-19T23:51:45.219Z,14.19
2019-05-19T23:54:11.070Z,14.32
2019-05-19T23:56:36.978Z,14.54
2019-05-19T23:59:02.955Z,14.76
